sensor_id;sensor_type;location;lat;lon;timestamp;temperature;humidity
35635;DHT22;21757;43.610;1.440;2022-11-20T00:00:50;7.90;99.90
35635;DHT22;21757;43.610;1.440;2022-11-20T00:03:15;7.90;99.90
35635;DHT22;21757;43.610;1.440;2022-11-20T00:05:42;7.90;99.90
35635;DHT22;21757;43.610;1.440;2022-11-20T00:08:08;7.90;99.90
35635;DHT22;21757;43.610;1.440;2022-11-20T00:10:38;7.90;99.90
35635;DHT22;21757;43.610;1.440;2022-11-20T00:13:04;7.90;99.90
35635;DHT22;21757;43.610;1.440;2022-11-20T00:15:30;7.80;99.90
35635;DHT22;21757;43.610;1.440;2022-11-20T00:17:56;7.80;99.90
35635;DHT22;21757;43.610;1.440;2022-11-20T00:20:22;7.80;99.90
35635;DHT22;21757;43.610;1.440;2022-11-20T00:22:49;7.90;99.90
35635;DHT22;21757;43.610;1.440;2022-11-20T00:25:16;7.90;99.90
35635;DHT22;21757;43.610;1.440;2022-11-20T00:27:42;7.90;99.90
35635;DHT22;21757;43.610;1.440;2022-11-20T00:30:08;7.90;99.90
35635;DHT22;21757;43.610;1.440;2022-11-20T00:32:34;7.80;99.90
35635;DHT22;21757;43.610;1.440;2022-11-20T00:35:00;7.80;99.90
35635;DHT22;21757;43.610;1.440;2022-11-20T00:37:26;7.90;99.90
35635;DHT22;21757;43.610;1.440;2022-11-20T00:39:51;7.90;99.90
35635;DHT22;21757;43.610;1.440;2022-11-20T00:42:17;7.90;99.90
35635;DHT22;21757;43.610;1.440;2022-11-20T00:44:43;7.90;99.90
35635;DHT22;21757;43.610;1.440;2022-11-20T00:47:09;7.90;99.90
35635;DHT22;21757;43.610;1.440;2022-11-20T00:49:35;7.90;99.90
35635;DHT22;21757;43.610;1.440;2022-11-20T00:52:01;8.00;99.90
35635;DHT22;21757;43.610;1.440;2022-11-20T00:54:26;8.00;99.90
35635;DHT22;21757;43.610;1.440;2022-11-20T00:56:55;8.00;99.90
35635;DHT22;21757;43.610;1.440;2022-11-20T00:59:21;8.00;99.90
35635;DHT22;21757;43.610;1.440;2022-11-20T01:01:47;8.00;99.90
35635;DHT22;21757;43.610;1.440;2022-11-20T01:04:12;7.90;99.90
35635;DHT22;21757;43.610;1.440;2022-11-20T01:06:39;8.00;99.90
35635;DHT22;21757;43.610;1.440;2022-11-20T01:09:07;8.00;99.90
35635;DHT22;21757;43.610;1.440;2022-11-20T01:11:36;8.00;99.90
35635;DHT22;21757;43.610;1.440;2022-11-20T01:14:04;8.00;99.90
35635;DHT22;21757;43.610;1.440;2022-11-20T01:16:39;7.90;99.90
35635;DHT22;21757;43.610;1.440;2022-11-20T01:19:07;8.00;99.90
35635;DHT22;21757;43.610;1.440;2022-11-20T01:21:35;7.90;99.90
35635;DHT22;21757;43.610;1.440;2022-11-20T01:24:02;8.00;99.90
35635;DHT22;21757;43.610;1.440;2022-11-20T01:26:35;8.00;99.90
35635;DHT22;21757;43.610;1.440;2022-11-20T01:29:02;8.00;99.90
35635;DHT22;21757;43.610;1.440;2022-11-20T01:31:31;8.00;99.90
35635;DHT22;21757;43.610;1.440;2022-11-20T01:34:03;8.00;99.90
35635;DHT22;21757;43.610;1.440;2022-11-20T01:36:30;8.00;99.90
35635;DHT22;21757;43.610;1.440;2022-11-20T01:39:02;7.90;99.90
35635;DHT22;21757;43.610;1.440;2022-11-20T01:41:30;7.70;99.90
35635;DHT22;21757;43.610;1.440;2022-11-20T01:44:16;7.60;99.90
35635;DHT22;21757;43.610;1.440;2022-11-20T01:47:03;7.50;99.90
35635;DHT22;21757;43.610;1.440;2022-11-20T01:50:21;7.30;99.90
35635;DHT22;21757;43.610;1.440;2022-11-20T01:52:47;7.20;99.90
35635;DHT22;21757;43.610;1.440;2022-11-20T01:55:19;7.20;99.90
35635;DHT22;21757;43.610;1.440;2022-11-20T01:57:49;7.20;99.90
35635;DHT22;21757;43.610;1.440;2022-11-20T02:00:16;7.20;99.90
35635;DHT22;21757;43.610;1.440;2022-11-20T02:02:46;7.10;99.90
35635;DHT22;21757;43.610;1.440;2022-11-20T02:08:30;7.10;99.90
35635;DHT22;21757;43.610;1.440;2022-11-20T02:10:56;7.00;99.90
35635;DHT22;21757;43.610;1.440;2022-11-20T02:13:22;7.00;99.90
35635;DHT22;21757;43.610;1.440;2022-11-20T02:16:10;6.90;99.90
35635;DHT22;21757;43.610;1.440;2022-11-20T02:18:37;6.90;99.90
35635;DHT22;21757;43.610;1.440;2022-11-20T02:24:17;6.90;99.90
35635;DHT22;21757;43.610;1.440;2022-11-20T02:27:02;6.80;99.90
35635;DHT22;21757;43.610;1.440;2022-11-20T02:29:46;6.70;99.90
35635;DHT22;21757;43.610;1.440;2022-11-20T02:32:26;6.70;99.90
35635;DHT22;21757;43.610;1.440;2022-11-20T02:34:52;6.70;99.90
35635;DHT22;21757;43.610;1.440;2022-11-20T02:37:19;6.60;99.90
35635;DHT22;21757;43.610;1.440;2022-11-20T02:39:47;6.60;99.90
35635;DHT22;21757;43.610;1.440;2022-11-20T02:42:14;6.50;99.90
35635;DHT22;21757;43.610;1.440;2022-11-20T02:44:39;6.50;99.90
35635;DHT22;21757;43.610;1.440;2022-11-20T02:47:05;6.50;99.90
35635;DHT22;21757;43.610;1.440;2022-11-20T02:49:31;6.50;99.90
35635;DHT22;21757;43.610;1.440;2022-11-20T02:51:57;6.50;99.90
35635;DHT22;21757;43.610;1.440;2022-11-20T02:54:24;6.40;99.90
35635;DHT22;21757;43.610;1.440;2022-11-20T02:56:50;6.40;99.90
35635;DHT22;21757;43.610;1.440;2022-11-20T02:59:15;6.50;99.90
35635;DHT22;21757;43.610;1.440;2022-11-20T03:01:41;6.50;99.90
35635;DHT22;21757;43.610;1.440;2022-11-20T03:04:07;6.40;99.90
35635;DHT22;21757;43.610;1.440;2022-11-20T03:06:32;6.40;99.90
35635;DHT22;21757;43.610;1.440;2022-11-20T03:08:58;6.50;99.90
35635;DHT22;21757;43.610;1.440;2022-11-20T03:11:24;6.40;99.90
35635;DHT22;21757;43.610;1.440;2022-11-20T03:13:49;6.40;99.90
35635;DHT22;21757;43.610;1.440;2022-11-20T03:16:18;6.40;99.90
35635;DHT22;21757;43.610;1.440;2022-11-20T03:18:44;6.30;99.90
35635;DHT22;21757;43.610;1.440;2022-11-20T03:21:11;6.30;99.90
35635;DHT22;21757;43.610;1.440;2022-11-20T03:23:38;6.30;99.90
35635;DHT22;21757;43.610;1.440;2022-11-20T03:26:24;6.30;99.90
35635;DHT22;21757;43.610;1.440;2022-11-20T03:28:59;6.30;99.90
35635;DHT22;21757;43.610;1.440;2022-11-20T03:31:30;6.30;99.90
35635;DHT22;21757;43.610;1.440;2022-11-20T03:33:56;6.30;99.90
35635;DHT22;21757;43.610;1.440;2022-11-20T03:36:22;6.30;99.90
35635;DHT22;21757;43.610;1.440;2022-11-20T03:38:49;6.20;99.90
35635;DHT22;21757;43.610;1.440;2022-11-20T03:41:20;6.20;99.90
35635;DHT22;21757;43.610;1.440;2022-11-20T03:43:48;6.30;99.90
35635;DHT22;21757;43.610;1.440;2022-11-20T03:46:14;6.30;99.90
35635;DHT22;21757;43.610;1.440;2022-11-20T03:48:39;6.30;99.90
35635;DHT22;21757;43.610;1.440;2022-11-20T03:51:15;6.20;99.90
35635;DHT22;21757;43.610;1.440;2022-11-20T03:53:42;6.20;99.90
35635;DHT22;21757;43.610;1.440;2022-11-20T03:56:09;6.20;99.90
35635;DHT22;21757;43.610;1.440;2022-11-20T03:58:36;6.20;99.90
35635;DHT22;21757;43.610;1.440;2022-11-20T04:01:13;6.10;99.90
35635;DHT22;21757;43.610;1.440;2022-11-20T04:03:40;6.10;99.90
35635;DHT22;21757;43.610;1.440;2022-11-20T04:06:18;6.10;99.90
35635;DHT22;21757;43.610;1.440;2022-11-20T04:08:44;6.10;99.90
35635;DHT22;21757;43.610;1.440;2022-11-20T04:11:15;6.10;99.90
35635;DHT22;21757;43.610;1.440;2022-11-20T04:13:42;6.10;99.90
35635;DHT22;21757;43.610;1.440;2022-11-20T04:16:10;6.10;99.90
35635;DHT22;21757;43.610;1.440;2022-11-20T04:18:36;6.10;99.90
35635;DHT22;21757;43.610;1.440;2022-11-20T04:21:03;6.00;99.90
35635;DHT22;21757;43.610;1.440;2022-11-20T04:23:28;6.00;99.90
35635;DHT22;21757;43.610;1.440;2022-11-20T04:25:54;6.00;99.90
35635;DHT22;21757;43.610;1.440;2022-11-20T04:28:21;6.00;99.90
35635;DHT22;21757;43.610;1.440;2022-11-20T04:30:46;6.00;99.90
35635;DHT22;21757;43.610;1.440;2022-11-20T04:33:12;6.00;99.90
35635;DHT22;21757;43.610;1.440;2022-11-20T04:35:38;5.90;99.90
35635;DHT22;21757;43.610;1.440;2022-11-20T04:38:04;5.90;99.90
35635;DHT22;21757;43.610;1.440;2022-11-20T04:40:30;5.90;99.90
35635;DHT22;21757;43.610;1.440;2022-11-20T04:42:56;5.90;99.90
35635;DHT22;21757;43.610;1.440;2022-11-20T04:45:23;5.90;99.90
35635;DHT22;21757;43.610;1.440;2022-11-20T04:47:48;5.90;99.90
35635;DHT22;21757;43.610;1.440;2022-11-20T04:50:14;5.90;99.90
35635;DHT22;21757;43.610;1.440;2022-11-20T04:52:40;5.90;99.90
35635;DHT22;21757;43.610;1.440;2022-11-20T04:55:07;5.90;99.90
35635;DHT22;21757;43.610;1.440;2022-11-20T04:57:32;5.90;99.90
35635;DHT22;21757;43.610;1.440;2022-11-20T04:59:58;5.80;99.90
35635;DHT22;21757;43.610;1.440;2022-11-20T05:02:24;5.80;99.90
35635;DHT22;21757;43.610;1.440;2022-11-20T05:04:49;5.80;99.90
35635;DHT22;21757;43.610;1.440;2022-11-20T05:07:15;5.80;99.90
35635;DHT22;21757;43.610;1.440;2022-11-20T05:09:41;5.70;99.90
35635;DHT22;21757;43.610;1.440;2022-11-20T05:12:09;5.70;99.90
35635;DHT22;21757;43.610;1.440;2022-11-20T05:14:35;5.80;99.90
35635;DHT22;21757;43.610;1.440;2022-11-20T05:17:01;5.70;99.90
35635;DHT22;21757;43.610;1.440;2022-11-20T05:19:26;5.70;99.90
35635;DHT22;21757;43.610;1.440;2022-11-20T05:21:52;5.70;99.90
35635;DHT22;21757;43.610;1.440;2022-11-20T05:24:19;5.70;99.90
35635;DHT22;21757;43.610;1.440;2022-11-20T05:26:45;5.70;99.90
35635;DHT22;21757;43.610;1.440;2022-11-20T05:29:13;5.70;99.90
35635;DHT22;21757;43.610;1.440;2022-11-20T05:31:41;5.70;99.90
35635;DHT22;21757;43.610;1.440;2022-11-20T05:34:07;5.70;99.90
35635;DHT22;21757;43.610;1.440;2022-11-20T05:36:33;5.70;99.90
35635;DHT22;21757;43.610;1.440;2022-11-20T05:38:58;5.60;99.90
35635;DHT22;21757;43.610;1.440;2022-11-20T05:41:24;5.70;99.90
35635;DHT22;21757;43.610;1.440;2022-11-20T05:43:50;5.60;99.90
35635;DHT22;21757;43.610;1.440;2022-11-20T05:46:19;5.70;99.90
35635;DHT22;21757;43.610;1.440;2022-11-20T05:48:45;5.70;99.90
35635;DHT22;21757;43.610;1.440;2022-11-20T05:51:14;5.70;99.90
35635;DHT22;21757;43.610;1.440;2022-11-20T05:53:40;5.70;99.90
35635;DHT22;21757;43.610;1.440;2022-11-20T05:56:26;5.70;99.90
35635;DHT22;21757;43.610;1.440;2022-11-20T05:58:51;5.60;99.90
35635;DHT22;21757;43.610;1.440;2022-11-20T06:01:18;5.60;99.90
35635;DHT22;21757;43.610;1.440;2022-11-20T06:03:44;5.60;99.90
35635;DHT22;21757;43.610;1.440;2022-11-20T06:06:13;5.60;99.90
35635;DHT22;21757;43.610;1.440;2022-11-20T06:08:39;5.60;99.90
35635;DHT22;21757;43.610;1.440;2022-11-20T06:11:08;5.60;99.90
35635;DHT22;21757;43.610;1.440;2022-11-20T06:13:34;5.60;99.90
35635;DHT22;21757;43.610;1.440;2022-11-20T06:16:00;5.60;99.90
35635;DHT22;21757;43.610;1.440;2022-11-20T06:18:29;5.60;99.90
35635;DHT22;21757;43.610;1.440;2022-11-20T06:23:29;5.60;99.90
35635;DHT22;21757;43.610;1.440;2022-11-20T06:25:54;5.50;99.90
35635;DHT22;21757;43.610;1.440;2022-11-20T06:28:20;5.50;99.90
35635;DHT22;21757;43.610;1.440;2022-11-20T06:30:47;5.60;99.90
35635;DHT22;21757;43.610;1.440;2022-11-20T06:33:13;5.50;99.90
35635;DHT22;21757;43.610;1.440;2022-11-20T06:35:38;5.50;99.90
35635;DHT22;21757;43.610;1.440;2022-11-20T06:38:04;5.50;99.90
35635;DHT22;21757;43.610;1.440;2022-11-20T06:40:29;5.60;99.90
35635;DHT22;21757;43.610;1.440;2022-11-20T06:42:55;5.60;99.90
35635;DHT22;21757;43.610;1.440;2022-11-20T06:45:21;5.60;99.90
35635;DHT22;21757;43.610;1.440;2022-11-20T06:47:48;5.60;99.90
35635;DHT22;21757;43.610;1.440;2022-11-20T06:50:13;5.60;99.90
35635;DHT22;21757;43.610;1.440;2022-11-20T06:52:39;5.60;99.90
35635;DHT22;21757;43.610;1.440;2022-11-20T06:55:05;5.60;99.90
35635;DHT22;21757;43.610;1.440;2022-11-20T06:57:31;5.60;99.90
35635;DHT22;21757;43.610;1.440;2022-11-20T06:59:57;5.60;99.90
35635;DHT22;21757;43.610;1.440;2022-11-20T07:02:22;5.60;99.90
35635;DHT22;21757;43.610;1.440;2022-11-20T07:04:48;5.70;99.90
35635;DHT22;21757;43.610;1.440;2022-11-20T07:07:13;5.70;99.90
35635;DHT22;21757;43.610;1.440;2022-11-20T07:09:39;5.70;99.90
35635;DHT22;21757;43.610;1.440;2022-11-20T07:12:05;5.60;99.90
35635;DHT22;21757;43.610;1.440;2022-11-20T07:14:31;5.70;99.90
35635;DHT22;21757;43.610;1.440;2022-11-20T07:16:57;5.70;99.90
35635;DHT22;21757;43.610;1.440;2022-11-20T07:19:23;5.70;99.90
35635;DHT22;21757;43.610;1.440;2022-11-20T07:21:49;5.80;99.90
35635;DHT22;21757;43.610;1.440;2022-11-20T07:24:14;5.80;99.90
35635;DHT22;21757;43.610;1.440;2022-11-20T07:26:40;5.80;99.90
35635;DHT22;21757;43.610;1.440;2022-11-20T07:29:06;5.90;99.90
35635;DHT22;21757;43.610;1.440;2022-11-20T07:31:31;5.80;99.90
35635;DHT22;21757;43.610;1.440;2022-11-20T07:33:58;5.90;99.90
35635;DHT22;21757;43.610;1.440;2022-11-20T07:36:24;5.90;99.90
35635;DHT22;21757;43.610;1.440;2022-11-20T07:38:49;5.90;99.90
35635;DHT22;21757;43.610;1.440;2022-11-20T07:41:15;5.90;99.90
35635;DHT22;21757;43.610;1.440;2022-11-20T07:43:41;6.00;99.90
35635;DHT22;21757;43.610;1.440;2022-11-20T07:46:07;6.00;99.90
35635;DHT22;21757;43.610;1.440;2022-11-20T07:48:32;5.90;99.90
35635;DHT22;21757;43.610;1.440;2022-11-20T07:50:58;5.90;99.90
35635;DHT22;21757;43.610;1.440;2022-11-20T07:53:24;5.90;99.90
35635;DHT22;21757;43.610;1.440;2022-11-20T07:55:50;5.90;99.90
35635;DHT22;21757;43.610;1.440;2022-11-20T07:58:18;6.20;99.90
35635;DHT22;21757;43.610;1.440;2022-11-20T08:00:44;6.50;99.90
35635;DHT22;21757;43.610;1.440;2022-11-20T08:03:10;6.80;99.90
35635;DHT22;21757;43.610;1.440;2022-11-20T08:05:36;7.00;99.90
35635;DHT22;21757;43.610;1.440;2022-11-20T08:08:02;7.00;99.90
35635;DHT22;21757;43.610;1.440;2022-11-20T08:10:28;6.90;99.90
35635;DHT22;21757;43.610;1.440;2022-11-20T08:12:54;6.80;99.90
35635;DHT22;21757;43.610;1.440;2022-11-20T08:15:39;6.80;99.90
35635;DHT22;21757;43.610;1.440;2022-11-20T08:18:10;6.80;99.90
35635;DHT22;21757;43.610;1.440;2022-11-20T08:20:38;6.90;99.90
35635;DHT22;21757;43.610;1.440;2022-11-20T08:23:06;6.80;99.90
35635;DHT22;21757;43.610;1.440;2022-11-20T08:25:33;7.10;99.90
35635;DHT22;21757;43.610;1.440;2022-11-20T08:28:01;7.20;99.90
35635;DHT22;21757;43.610;1.440;2022-11-20T08:30:27;7.30;99.90
35635;DHT22;21757;43.610;1.440;2022-11-20T08:32:54;7.20;99.90
35635;DHT22;21757;43.610;1.440;2022-11-20T08:35:20;7.30;99.90
35635;DHT22;21757;43.610;1.440;2022-11-20T08:37:47;7.40;99.90
35635;DHT22;21757;43.610;1.440;2022-11-20T08:40:13;7.40;99.90
35635;DHT22;21757;43.610;1.440;2022-11-20T08:42:49;7.50;99.90
35635;DHT22;21757;43.610;1.440;2022-11-20T08:45:16;7.70;99.90
35635;DHT22;21757;43.610;1.440;2022-11-20T08:47:42;7.60;99.90
35635;DHT22;21757;43.610;1.440;2022-11-20T08:50:10;7.40;99.90
35635;DHT22;21757;43.610;1.440;2022-11-20T08:52:36;7.40;99.90
35635;DHT22;21757;43.610;1.440;2022-11-20T08:55:02;7.40;99.90
35635;DHT22;21757;43.610;1.440;2022-11-20T08:57:34;7.50;99.90
35635;DHT22;21757;43.610;1.440;2022-11-20T09:00:00;7.50;99.90
35635;DHT22;21757;43.610;1.440;2022-11-20T09:02:26;7.40;99.90
35635;DHT22;21757;43.610;1.440;2022-11-20T09:04:52;7.40;99.90
35635;DHT22;21757;43.610;1.440;2022-11-20T09:07:19;7.70;99.90
35635;DHT22;21757;43.610;1.440;2022-11-20T09:09:45;7.70;99.90
35635;DHT22;21757;43.610;1.440;2022-11-20T09:12:12;7.80;99.90
35635;DHT22;21757;43.610;1.440;2022-11-20T09:14:37;7.90;99.90
35635;DHT22;21757;43.610;1.440;2022-11-20T09:17:03;7.90;99.90
35635;DHT22;21757;43.610;1.440;2022-11-20T09:19:28;7.90;99.90
35635;DHT22;21757;43.610;1.440;2022-11-20T09:21:54;7.80;99.90
35635;DHT22;21757;43.610;1.440;2022-11-20T09:24:20;7.70;99.90
35635;DHT22;21757;43.610;1.440;2022-11-20T09:26:48;7.70;99.90
35635;DHT22;21757;43.610;1.440;2022-11-20T09:29:14;7.70;99.90
35635;DHT22;21757;43.610;1.440;2022-11-20T09:31:39;7.70;99.90
35635;DHT22;21757;43.610;1.440;2022-11-20T09:34:05;7.80;99.90
35635;DHT22;21757;43.610;1.440;2022-11-20T09:36:31;7.90;99.90
35635;DHT22;21757;43.610;1.440;2022-11-20T09:38:56;7.80;99.90
35635;DHT22;21757;43.610;1.440;2022-11-20T09:52:24;7.70;99.90
35635;DHT22;21757;43.610;1.440;2022-11-20T09:54:54;7.70;99.90
35635;DHT22;21757;43.610;1.440;2022-11-20T09:57:34;7.70;99.90
35635;DHT22;21757;43.610;1.440;2022-11-20T10:00:04;7.80;99.90
35635;DHT22;21757;43.610;1.440;2022-11-20T10:05:45;7.90;99.90
35635;DHT22;21757;43.610;1.440;2022-11-20T10:08:24;8.00;99.90
35635;DHT22;21757;43.610;1.440;2022-11-20T10:16:25;8.10;99.90
35635;DHT22;21757;43.610;1.440;2022-11-20T10:19:10;8.20;99.90
35635;DHT22;21757;43.610;1.440;2022-11-20T10:29:51;8.40;99.90
35635;DHT22;21757;43.610;1.440;2022-11-20T10:32:31;8.40;99.90
35635;DHT22;21757;43.610;1.440;2022-11-20T10:38:09;8.60;99.90
35635;DHT22;21757;43.610;1.440;2022-11-20T10:40:44;8.70;99.90
35635;DHT22;21757;43.610;1.440;2022-11-20T10:43:33;8.70;99.90
35635;DHT22;21757;43.610;1.440;2022-11-20T10:46:06;8.70;99.90
35635;DHT22;21757;43.610;1.440;2022-11-20T10:48:34;8.90;99.90
35635;DHT22;21757;43.610;1.440;2022-11-20T10:56:53;9.30;99.90
35635;DHT22;21757;43.610;1.440;2022-11-20T10:59:35;9.50;99.90
35635;DHT22;21757;43.610;1.440;2022-11-20T11:02:21;9.60;99.90
35635;DHT22;21757;43.610;1.440;2022-11-20T11:04:49;9.60;99.90
35635;DHT22;21757;43.610;1.440;2022-11-20T11:07:29;9.70;99.90
35635;DHT22;21757;43.610;1.440;2022-11-20T11:09:56;9.70;99.90
35635;DHT22;21757;43.610;1.440;2022-11-20T11:12:24;9.70;99.90
35635;DHT22;21757;43.610;1.440;2022-11-20T11:14:53;9.90;99.90
35635;DHT22;21757;43.610;1.440;2022-11-20T11:17:31;10.10;99.90
35635;DHT22;21757;43.610;1.440;2022-11-20T11:20:05;10.20;99.90
35635;DHT22;21757;43.610;1.440;2022-11-20T11:22:34;10.40;99.90
35635;DHT22;21757;43.610;1.440;2022-11-20T11:25:55;10.50;99.90
35635;DHT22;21757;43.610;1.440;2022-11-20T11:28:21;10.70;99.90
35635;DHT22;21757;43.610;1.440;2022-11-20T11:30:49;10.70;99.90
35635;DHT22;21757;43.610;1.440;2022-11-20T11:35:58;10.50;99.90
35635;DHT22;21757;43.610;1.440;2022-11-20T11:40:56;10.50;99.90
35635;DHT22;21757;43.610;1.440;2022-11-20T11:43:25;10.80;99.90
35635;DHT22;21757;43.610;1.440;2022-11-20T11:46:33;11.50;99.90
35635;DHT22;21757;43.610;1.440;2022-11-20T11:51:41;11.80;99.90
35635;DHT22;21757;43.610;1.440;2022-11-20T11:54:35;11.60;99.90
35635;DHT22;21757;43.610;1.440;2022-11-20T11:57:09;11.50;99.90
35635;DHT22;21757;43.610;1.440;2022-11-20T12:04:59;11.70;99.90
35635;DHT22;21757;43.610;1.440;2022-11-20T12:07:38;11.60;99.90
35635;DHT22;21757;43.610;1.440;2022-11-20T12:10:08;11.80;99.90
35635;DHT22;21757;43.610;1.440;2022-11-20T12:12:42;12.10;99.90
35635;DHT22;21757;43.610;1.440;2022-11-20T12:15:10;12.30;99.90
35635;DHT22;21757;43.610;1.440;2022-11-20T12:17:36;12.50;99.90
35635;DHT22;21757;43.610;1.440;2022-11-20T12:20:02;12.40;99.90
35635;DHT22;21757;43.610;1.440;2022-11-20T12:23:06;12.50;99.90
35635;DHT22;21757;43.610;1.440;2022-11-20T12:25:31;12.60;99.90
35635;DHT22;21757;43.610;1.440;2022-11-20T12:30:34;12.70;99.90
35635;DHT22;21757;43.610;1.440;2022-11-20T13:07:16;13.00;99.90
35635;DHT22;21757;43.610;1.440;2022-11-20T13:09:45;12.70;99.90
35635;DHT22;21757;43.610;1.440;2022-11-20T13:12:40;12.40;99.90
35635;DHT22;21757;43.610;1.440;2022-11-20T13:17:53;12.00;99.90
35635;DHT22;21757;43.610;1.440;2022-11-20T13:20:21;11.90;99.90
35635;DHT22;21757;43.610;1.440;2022-11-20T13:22:48;11.90;99.90
35635;DHT22;21757;43.610;1.440;2022-11-20T13:27:59;11.70;99.90
35635;DHT22;21757;43.610;1.440;2022-11-20T13:30:30;11.50;99.90
35635;DHT22;21757;43.610;1.440;2022-11-20T13:33:07;11.40;99.90
35635;DHT22;21757;43.610;1.440;2022-11-20T13:35:41;11.40;99.90
35635;DHT22;21757;43.610;1.440;2022-11-20T13:38:13;11.40;99.90
35635;DHT22;21757;43.610;1.440;2022-11-20T13:40:51;11.60;99.90
35635;DHT22;21757;43.610;1.440;2022-11-20T13:43:36;11.70;99.90
35635;DHT22;21757;43.610;1.440;2022-11-20T13:46:05;11.80;99.90
35635;DHT22;21757;43.610;1.440;2022-11-20T13:48:42;11.80;99.90
35635;DHT22;21757;43.610;1.440;2022-11-20T13:57:32;11.90;99.90
35635;DHT22;21757;43.610;1.440;2022-11-20T14:00:20;11.90;99.90
35635;DHT22;21757;43.610;1.440;2022-11-20T14:03:07;11.90;99.90
35635;DHT22;21757;43.610;1.440;2022-11-20T14:05:37;12.00;99.90
35635;DHT22;21757;43.610;1.440;2022-11-20T14:08:06;12.30;99.90
35635;DHT22;21757;43.610;1.440;2022-11-20T14:10:32;12.50;99.90
35635;DHT22;21757;43.610;1.440;2022-11-20T14:13:10;12.60;99.90
35635;DHT22;21757;43.610;1.440;2022-11-20T14:15:36;12.70;99.90
35635;DHT22;21757;43.610;1.440;2022-11-20T14:18:18;12.60;99.90
35635;DHT22;21757;43.610;1.440;2022-11-20T14:20:44;12.60;99.90
35635;DHT22;21757;43.610;1.440;2022-11-20T14:23:11;12.60;99.90
35635;DHT22;21757;43.610;1.440;2022-11-20T14:25:37;12.60;99.90
35635;DHT22;21757;43.610;1.440;2022-11-20T14:28:24;12.60;99.90
35635;DHT22;21757;43.610;1.440;2022-11-20T14:30:50;12.70;99.90
35635;DHT22;21757;43.610;1.440;2022-11-20T14:33:17;12.70;99.90
35635;DHT22;21757;43.610;1.440;2022-11-20T14:35:47;12.80;99.90
35635;DHT22;21757;43.610;1.440;2022-11-20T14:38:19;12.90;99.90
35635;DHT22;21757;43.610;1.440;2022-11-20T14:40:45;12.90;99.90
35635;DHT22;21757;43.610;1.440;2022-11-20T14:43:26;12.90;99.90
35635;DHT22;21757;43.610;1.440;2022-11-20T14:46:07;13.00;99.90
35635;DHT22;21757;43.610;1.440;2022-11-20T14:48:47;13.00;99.90
35635;DHT22;21757;43.610;1.440;2022-11-20T14:51:27;13.20;99.90
35635;DHT22;21757;43.610;1.440;2022-11-20T14:53:53;13.20;99.90
35635;DHT22;21757;43.610;1.440;2022-11-20T14:56:23;13.20;99.90
35635;DHT22;21757;43.610;1.440;2022-11-20T14:58:56;13.20;99.90
35635;DHT22;21757;43.610;1.440;2022-11-20T15:01:27;13.30;99.90
35635;DHT22;21757;43.610;1.440;2022-11-20T15:04:06;13.20;99.90
35635;DHT22;21757;43.610;1.440;2022-11-20T15:06:33;13.10;99.90
35635;DHT22;21757;43.610;1.440;2022-11-20T15:08:58;13.00;99.90
35635;DHT22;21757;43.610;1.440;2022-11-20T15:11:35;13.00;99.90
35635;DHT22;21757;43.610;1.440;2022-11-20T15:14:04;12.90;99.90
35635;DHT22;21757;43.610;1.440;2022-11-20T15:16:32;13.00;99.90
35635;DHT22;21757;43.610;1.440;2022-11-20T15:19:00;13.00;99.90
35635;DHT22;21757;43.610;1.440;2022-11-20T15:21:28;13.10;99.90
35635;DHT22;21757;43.610;1.440;2022-11-20T15:23:54;13.10;99.90
35635;DHT22;21757;43.610;1.440;2022-11-20T15:26:27;13.10;99.90
35635;DHT22;21757;43.610;1.440;2022-11-20T15:28:54;13.10;99.90
35635;DHT22;21757;43.610;1.440;2022-11-20T15:31:22;13.00;99.90
35635;DHT22;21757;43.610;1.440;2022-11-20T15:33:48;13.00;99.90
35635;DHT22;21757;43.610;1.440;2022-11-20T15:36:14;13.00;99.90
35635;DHT22;21757;43.610;1.440;2022-11-20T15:38:40;12.90;99.90
35635;DHT22;21757;43.610;1.440;2022-11-20T15:41:06;12.90;99.90
35635;DHT22;21757;43.610;1.440;2022-11-20T15:43:32;12.90;99.90
35635;DHT22;21757;43.610;1.440;2022-11-20T15:46:11;12.90;99.90
35635;DHT22;21757;43.610;1.440;2022-11-20T15:48:41;12.90;99.90
35635;DHT22;21757;43.610;1.440;2022-11-20T15:53:40;12.80;99.90
35635;DHT22;21757;43.610;1.440;2022-11-20T15:56:11;12.90;99.90
35635;DHT22;21757;43.610;1.440;2022-11-20T15:58:37;12.80;99.90
35635;DHT22;21757;43.610;1.440;2022-11-20T16:01:03;12.90;99.90
35635;DHT22;21757;43.610;1.440;2022-11-20T16:03:29;12.80;99.90
35635;DHT22;21757;43.610;1.440;2022-11-20T16:05:55;12.70;99.90
35635;DHT22;21757;43.610;1.440;2022-11-20T16:08:21;12.70;99.90
35635;DHT22;21757;43.610;1.440;2022-11-20T16:10:46;12.70;99.90
35635;DHT22;21757;43.610;1.440;2022-11-20T16:13:17;12.70;99.90
35635;DHT22;21757;43.610;1.440;2022-11-20T16:16:04;12.70;99.90
35635;DHT22;21757;43.610;1.440;2022-11-20T16:18:31;12.70;99.90
35635;DHT22;21757;43.610;1.440;2022-11-20T16:20:57;12.70;99.90
35635;DHT22;21757;43.610;1.440;2022-11-20T16:23:23;12.60;99.90
35635;DHT22;21757;43.610;1.440;2022-11-20T16:25:50;12.60;99.90
35635;DHT22;21757;43.610;1.440;2022-11-20T16:28:16;12.60;99.90
35635;DHT22;21757;43.610;1.440;2022-11-20T16:30:42;12.60;99.90
35635;DHT22;21757;43.610;1.440;2022-11-20T16:33:12;12.70;99.90
35635;DHT22;21757;43.610;1.440;2022-11-20T16:35:39;12.70;99.90
35635;DHT22;21757;43.610;1.440;2022-11-20T16:38:04;12.70;99.90
35635;DHT22;21757;43.610;1.440;2022-11-20T16:40:30;12.70;99.90
35635;DHT22;21757;43.610;1.440;2022-11-20T16:42:56;12.60;99.90
35635;DHT22;21757;43.610;1.440;2022-11-20T16:45:23;12.60;99.90
35635;DHT22;21757;43.610;1.440;2022-11-20T16:47:49;12.70;99.90
35635;DHT22;21757;43.610;1.440;2022-11-20T16:50:15;12.70;99.90
35635;DHT22;21757;43.610;1.440;2022-11-20T16:52:40;12.70;99.90
35635;DHT22;21757;43.610;1.440;2022-11-20T16:55:06;12.70;99.90
35635;DHT22;21757;43.610;1.440;2022-11-20T16:57:32;12.70;99.90
35635;DHT22;21757;43.610;1.440;2022-11-20T16:59:59;12.70;99.90
35635;DHT22;21757;43.610;1.440;2022-11-20T17:02:25;12.60;99.90
35635;DHT22;21757;43.610;1.440;2022-11-20T17:04:52;12.60;99.90
35635;DHT22;21757;43.610;1.440;2022-11-20T17:43:35;12.20;99.90
35635;DHT22;21757;43.610;1.440;2022-11-20T17:46:12;12.10;99.90
35635;DHT22;21757;43.610;1.440;2022-11-20T17:48:40;12.10;99.90
35635;DHT22;21757;43.610;1.440;2022-11-20T17:51:17;12.00;99.90
35635;DHT22;21757;43.610;1.440;2022-11-20T17:53:54;12.00;99.90
35635;DHT22;21757;43.610;1.440;2022-11-20T17:56:23;11.90;99.90
35635;DHT22;21757;43.610;1.440;2022-11-20T17:59:10;11.90;99.90
35635;DHT22;21757;43.610;1.440;2022-11-20T18:01:37;11.80;99.90
35635;DHT22;21757;43.610;1.440;2022-11-20T18:04:04;11.80;99.90
35635;DHT22;21757;43.610;1.440;2022-11-20T18:06:39;11.80;99.90
35635;DHT22;21757;43.610;1.440;2022-11-20T18:09:17;11.90;99.90
35635;DHT22;21757;43.610;1.440;2022-11-20T18:11:43;11.90;99.90
35635;DHT22;21757;43.610;1.440;2022-11-20T18:14:14;11.90;99.90
35635;DHT22;21757;43.610;1.440;2022-11-20T18:17:02;11.90;99.90
35635;DHT22;21757;43.610;1.440;2022-11-20T18:19:33;11.90;99.90